createdAt,value
2023-04-08T00:00:27.001Z,51.111259
2023-04-08T00:01:26.634Z,51.111244
2023-04-08T00:02:26.456Z,51.111217
2023-04-08T00:03:26.455Z,51.111237
2023-04-08T00:04:26.368Z,51.111233
2023-04-08T00:05:26.319Z,51.111263
2023-04-08T00:06:26.298Z,51.111248
2023-04-08T00:07:26.243Z,51.111240
2023-04-08T00:08:26.190Z,51.111256
2023-04-08T00:09:26.222Z,51.111164
2023-04-08T00:10:26.235Z,51.111198
2023-04-08T00:11:26.245Z,51.111217
2023-04-08T00:12:26.217Z,51.111248
2023-04-08T00:13:26.231Z,51.111244
2023-04-08T00:14:26.293Z,51.111237
2023-04-08T00:15:26.259Z,51.111263
2023-04-08T00:16:26.319Z,51.111252
2023-04-08T00:17:26.313Z,51.111279
2023-04-08T00:18:26.546Z,51.111237
2023-04-08T00:19:26.278Z,51.111244
2023-04-08T00:20:26.269Z,51.111271
2023-04-08T00:21:26.328Z,51.111240
2023-04-08T00:22:26.251Z,51.111259
2023-04-08T00:23:26.314Z,51.111217
2023-04-08T00:24:26.225Z,51.111225
2023-04-08T00:25:26.326Z,51.111240
2023-04-08T00:26:26.192Z,51.111248
2023-04-08T00:27:26.121Z,51.111259
2023-04-08T00:28:26.084Z,51.111217
2023-04-08T00:29:26.158Z,51.111259
2023-04-08T00:30:26.072Z,51.111252
2023-04-08T00:31:26.175Z,51.111244
2023-04-08T00:32:26.114Z,51.111267
2023-04-08T00:33:27.058Z,51.111248
2023-04-08T00:34:26.065Z,51.111256
2023-04-08T00:35:26.160Z,51.111252
2023-04-08T00:36:26.144Z,51.111286
2023-04-08T00:37:26.106Z,51.111225
2023-04-08T00:38:26.131Z,51.111240
2023-04-08T00:39:26.101Z,51.111279
2023-04-08T00:40:26.137Z,51.111256
2023-04-08T00:41:26.095Z,51.111252
2023-04-08T00:42:26.141Z,51.111267
2023-04-08T00:43:26.139Z,51.111271
2023-04-08T00:44:26.131Z,51.111282
2023-04-08T00:45:26.293Z,51.111248
2023-04-08T00:46:26.162Z,51.111259
2023-04-08T00:47:26.095Z,51.111267
2023-04-08T00:48:25.970Z,51.111290
2023-04-08T00:49:25.945Z,51.111290
2023-04-08T00:50:26.442Z,51.111286
2023-04-08T00:51:25.971Z,51.111256
2023-04-08T00:52:25.912Z,51.111252
2023-04-08T00:53:26.017Z,51.111248
2023-04-08T00:54:25.935Z,51.111305
2023-04-08T00:55:26.015Z,51.111282
2023-04-08T00:56:26.003Z,51.111286
2023-04-08T00:57:26.005Z,51.111301
2023-04-08T00:58:25.996Z,51.111294
2023-04-08T00:59:26.015Z,51.111294
2023-04-08T01:00:25.989Z,51.111324
2023-04-08T01:01:26.002Z,51.111279
2023-04-08T01:02:26.226Z,51.111279
2023-04-08T01:03:26.074Z,51.111244
2023-04-08T01:04:25.985Z,51.111256
2023-04-08T01:05:26.233Z,51.111271
2023-04-08T01:06:25.925Z,51.111294
2023-04-08T01:07:25.982Z,51.111259
2023-04-08T01:08:25.872Z,51.111294
2023-04-08T01:09:25.810Z,51.111282
2023-04-08T01:10:25.851Z,51.111233
2023-04-08T01:11:26.010Z,51.111237
2023-04-08T01:12:25.787Z,51.111256
2023-04-08T01:13:25.964Z,51.111279
2023-04-08T01:14:25.827Z,51.111298
2023-04-08T01:15:25.909Z,51.111252
2023-04-08T01:16:25.906Z,51.111202
2023-04-08T01:17:25.848Z,51.111217
2023-04-08T01:18:25.849Z,51.111240
2023-04-08T01:19:25.812Z,51.111259
2023-04-08T01:20:25.839Z,51.111263
2023-04-08T01:21:25.840Z,51.111252
2023-04-08T01:22:26.855Z,51.111244
2023-04-08T01:23:26.047Z,51.111221
2023-04-08T01:24:25.789Z,51.111259
2023-04-08T01:25:25.775Z,51.111267
2023-04-08T01:26:25.835Z,51.111282
2023-04-08T01:27:25.704Z,51.111286
2023-04-08T01:28:25.704Z,51.111275
2023-04-08T01:29:25.688Z,51.111282
2023-04-08T01:30:25.896Z,51.111282
2023-04-08T01:31:25.785Z,51.111294
2023-04-08T01:32:25.841Z,51.111282
2023-04-08T01:33:25.824Z,51.111279
2023-04-08T01:34:25.854Z,51.111279
2023-04-08T01:35:25.749Z,51.111256
2023-04-08T01:36:25.783Z,51.111279
2023-04-08T01:37:25.768Z,51.111271
2023-04-08T01:38:25.870Z,51.111263
2023-04-08T01:39:25.675Z,51.111263
2023-04-08T01:40:26.052Z,51.111267
2023-04-08T01:41:44.288Z,51.111279
2023-04-08T01:42:25.681Z,51.111271
2023-04-08T01:43:25.628Z,51.111275
2023-04-08T01:44:25.599Z,51.111279
2023-04-08T01:45:25.692Z,51.111267
2023-04-08T01:46:25.963Z,51.111259
2023-04-08T01:47:25.660Z,51.111286
2023-04-08T01:48:25.679Z,51.111259
2023-04-08T01:49:25.701Z,51.111252
2023-04-08T01:50:25.630Z,51.111267
2023-04-08T01:51:25.627Z,51.111263
2023-04-08T01:52:25.626Z,51.111271
2023-04-08T01:53:25.655Z,51.111279
2023-04-08T01:54:25.683Z,51.111267
2023-04-08T01:55:25.653Z,51.111263
2023-04-08T01:56:25.583Z,51.111244
2023-04-08T01:57:25.915Z,51.111256
2023-04-08T01:58:25.590Z,51.111252
2023-04-08T01:59:25.518Z,51.111252
2023-04-08T02:00:25.507Z,51.111267
2023-04-08T02:01:25.682Z,51.111271
2023-04-08T02:02:25.556Z,51.111279
2023-04-08T02:03:25.670Z,51.111279
2023-04-08T02:04:25.536Z,51.111286
2023-04-08T02:05:25.868Z,51.111286
2023-04-08T02:06:25.422Z,51.111282
2023-04-08T02:07:25.519Z,51.111279
2023-04-08T02:08:25.493Z,51.111279
2023-04-08T02:09:25.488Z,51.111267
2023-04-08T02:10:25.587Z,51.111275
2023-04-08T02:11:25.499Z,51.111275
2023-04-08T02:12:25.488Z,51.111279
2023-04-08T02:13:25.784Z,51.111282
2023-04-08T02:14:25.492Z,51.111301
2023-04-08T02:15:25.450Z,51.111320
2023-04-08T02:16:25.617Z,51.111309
2023-04-08T02:17:25.481Z,51.111340
2023-04-08T02:18:25.503Z,51.111290
2023-04-08T02:19:25.428Z,51.111256
2023-04-08T02:20:25.314Z,51.111267
2023-04-08T02:21:25.413Z,51.111298
2023-04-08T02:22:25.556Z,51.111275
2023-04-08T02:23:25.310Z,51.111267
2023-04-08T02:24:25.301Z,51.111279
2023-04-08T02:25:25.322Z,51.111275
2023-04-08T02:26:25.301Z,51.111305
2023-04-08T02:27:25.423Z,51.111282
2023-04-08T02:28:25.637Z,51.111275
2023-04-08T02:29:25.358Z,51.111275
2023-04-08T02:30:25.360Z,51.111259
2023-04-08T02:31:25.368Z,51.111244
2023-04-08T02:32:25.432Z,51.111282
2023-04-08T02:33:25.346Z,51.111267
2023-04-08T02:34:25.335Z,51.111221
2023-04-08T02:35:25.355Z,51.111225
2023-04-08T02:36:25.316Z,51.111252
2023-04-08T02:37:25.309Z,51.111237
2023-04-08T02:38:25.342Z,51.111275
2023-04-08T02:39:25.234Z,51.111286
2023-04-08T02:40:25.194Z,51.111286
2023-04-08T02:41:25.265Z,51.111313
2023-04-08T02:42:25.254Z,51.111359
2023-04-08T02:43:25.373Z,51.111305
2023-04-08T02:44:25.299Z,51.111252
2023-04-08T02:45:25.605Z,51.111256
2023-04-08T02:46:25.233Z,51.111244
2023-04-08T02:47:25.355Z,51.111259
2023-04-08T02:48:25.269Z,51.111256
2023-04-08T02:49:25.279Z,51.111256
2023-04-08T02:50:25.210Z,51.111271
2023-04-08T02:51:25.211Z,51.111294
2023-04-08T02:52:25.226Z,51.111282
2023-04-08T02:53:25.193Z,51.111252
2023-04-08T02:54:25.262Z,51.111237
2023-04-08T02:55:25.106Z,51.111275
2023-04-08T02:56:25.096Z,51.111309
2023-04-08T02:57:25.085Z,51.111374
2023-04-08T02:58:25.042Z,51.111374
2023-04-08T02:59:25.080Z,51.111351
2023-04-08T03:00:25.086Z,51.111320
2023-04-08T03:01:25.229Z,51.111332
2023-04-08T03:02:25.171Z,51.111332
2023-04-08T03:03:25.289Z,51.111309
2023-04-08T03:04:25.051Z,51.111290
2023-04-08T03:05:25.440Z,51.111256
2023-04-08T03:06:25.054Z,51.111294
2023-04-08T03:07:25.135Z,51.111240
2023-04-08T03:08:25.224Z,51.111259
2023-04-08T03:09:25.073Z,51.111217
2023-04-08T03:10:25.197Z,51.111237
2023-04-08T03:11:25.116Z,51.111240
2023-04-08T03:12:25.190Z,51.111240
2023-04-08T03:13:25.066Z,51.111267
2023-04-08T03:14:25.049Z,51.111286
2023-04-08T03:15:25.341Z,51.111263
2023-04-08T03:16:25.102Z,51.111282
2023-04-08T03:17:25.078Z,51.111301
2023-04-08T03:18:25.052Z,51.111305
2023-04-08T03:19:25.005Z,51.111290
2023-04-08T03:20:25.025Z,51.111305
2023-04-08T03:21:24.968Z,51.111294
2023-04-08T03:22:24.992Z,51.111320
2023-04-08T03:23:24.993Z,51.111279
2023-04-08T03:24:24.998Z,51.111275
2023-04-08T03:25:24.994Z,51.111309
2023-04-08T03:26:24.953Z,51.111320
2023-04-08T03:27:25.035Z,51.111267
2023-04-08T03:28:24.979Z,51.111328
2023-04-08T03:29:25.049Z,51.111282
2023-04-08T03:30:24.942Z,51.111317
2023-04-08T03:31:25.036Z,51.111320
2023-04-08T03:32:25.334Z,51.111290
2023-04-08T03:33:25.492Z,51.111298
2023-04-08T03:34:24.936Z,51.111282
2023-04-08T03:35:25.038Z,51.111332
2023-04-08T03:36:24.829Z,51.111301
2023-04-08T03:37:24.852Z,51.111282
2023-04-08T03:38:24.868Z,51.111298
2023-04-08T03:39:24.890Z,51.111294
2023-04-08T03:40:24.898Z,51.111336
2023-04-08T03:41:24.854Z,51.111324
2023-04-08T03:42:24.924Z,51.111359
2023-04-08T03:43:24.962Z,51.111343
2023-04-08T03:44:24.859Z,51.111298
2023-04-08T03:45:24.831Z,51.111320
2023-04-08T03:46:24.908Z,51.111328
2023-04-08T03:47:24.835Z,51.111336
2023-04-08T03:48:24.820Z,51.111359
2023-04-08T03:49:25.149Z,51.111462
2023-04-08T03:50:24.885Z,51.111401
2023-04-08T03:51:24.810Z,51.111416
2023-04-08T03:52:24.857Z,51.111370
2023-04-08T03:53:24.712Z,51.111313
2023-04-08T03:54:24.717Z,51.111362
2023-04-08T03:55:24.703Z,51.111362
2023-04-08T03:56:24.857Z,51.111343
2023-04-08T03:57:24.659Z,51.111324
2023-04-08T03:58:24.854Z,51.111347
2023-04-08T03:59:24.795Z,51.111324
2023-04-08T04:00:24.726Z,51.111359
2023-04-08T04:01:24.998Z,51.111320
2023-04-08T04:02:24.897Z,51.111263
2023-04-08T04:03:24.798Z,51.111244
2023-04-08T04:04:24.886Z,51.111198
2023-04-08T04:05:24.690Z,51.111191
2023-04-08T04:06:24.698Z,51.111217
2023-04-08T04:07:24.695Z,51.111259
2023-04-08T04:08:24.701Z,51.111267
2023-04-08T04:09:24.613Z,51.111301
2023-04-08T04:10:24.864Z,51.111282
2023-04-08T04:11:24.683Z,51.111279
2023-04-08T04:12:24.581Z,51.111317
2023-04-08T04:13:24.682Z,51.111332
2023-04-08T04:14:24.947Z,51.111305
2023-04-08T04:15:24.743Z,51.111275
2023-04-08T04:16:24.815Z,51.111275
2023-04-08T04:17:24.773Z,51.111286
2023-04-08T04:18:24.648Z,51.111282
2023-04-08T04:19:24.710Z,51.111279
2023-04-08T04:20:24.599Z,51.111282
2023-04-08T04:21:24.746Z,51.111263
2023-04-08T04:22:24.590Z,51.111271
2023-04-08T04:23:45.597Z,51.111275
2023-04-08T04:24:24.502Z,51.111244
2023-04-08T04:25:24.494Z,51.111267
2023-04-08T04:26:24.495Z,51.111240
2023-04-08T04:27:24.573Z,51.111305
2023-04-08T04:28:24.468Z,51.111286
2023-04-08T04:29:24.445Z,51.111290
2023-04-08T04:30:24.475Z,51.111263
2023-04-08T04:31:24.543Z,51.111298
2023-04-08T04:32:24.542Z,51.111279
2023-04-08T04:33:24.434Z,51.111271
2023-04-08T04:34:24.408Z,51.111267
2023-04-08T04:35:24.463Z,51.111275
2023-04-08T04:36:24.401Z,51.111290
2023-04-08T04:37:24.413Z,51.111279
2023-04-08T04:38:24.414Z,51.111256
2023-04-08T04:39:24.354Z,51.111259
2023-04-08T04:40:24.364Z,51.111244
2023-04-08T04:41:24.361Z,51.111259
2023-04-08T04:42:24.397Z,51.111263
2023-04-08T04:43:24.395Z,51.111263
2023-04-08T04:44:24.322Z,51.111256
2023-04-08T04:45:24.347Z,51.111259
2023-04-08T04:46:24.380Z,51.111259
2023-04-08T04:47:24.399Z,51.111252
2023-04-08T04:48:24.291Z,51.111267
2023-04-08T04:49:24.330Z,51.111259
2023-04-08T04:50:24.310Z,51.111275
2023-04-08T04:51:24.315Z,51.111282
2023-04-08T04:52:24.267Z,51.111244
2023-04-08T04:53:24.274Z,51.111267
2023-04-08T04:54:24.321Z,51.111256
2023-04-08T04:55:24.290Z,51.111217
2023-04-08T04:56:24.274Z,51.111263
2023-04-08T04:57:24.267Z,51.111271
2023-04-08T04:58:24.235Z,51.111263
2023-04-08T04:59:24.209Z,51.111263
2023-04-08T05:00:24.253Z,51.111225
2023-04-08T05:01:24.259Z,51.111217
2023-04-08T05:02:24.313Z,51.111256
2023-04-08T05:03:24.230Z,51.111248
2023-04-08T05:04:24.199Z,51.111259
2023-04-08T05:05:24.301Z,51.111267
2023-04-08T05:06:24.236Z,51.111267
2023-04-08T05:07:24.207Z,51.111290
2023-04-08T05:08:25.873Z,51.111294
2023-04-08T05:09:24.179Z,51.111294
2023-04-08T05:10:24.219Z,51.111271
2023-04-08T05:11:24.602Z,51.111259
2023-04-08T05:12:24.126Z,51.111172
2023-04-08T05:13:24.126Z,51.111244
2023-04-08T05:14:24.134Z,51.111271
2023-04-08T05:15:24.140Z,51.111248
2023-04-08T05:16:24.168Z,51.111252
2023-04-08T05:17:45.159Z,51.111294
2023-04-08T05:18:24.135Z,51.111275
2023-04-08T05:19:24.075Z,51.111271
2023-04-08T05:20:24.101Z,51.111271
2023-04-08T05:21:24.092Z,51.111244
2023-04-08T05:22:24.139Z,51.111252
2023-04-08T05:23:24.122Z,51.111252
2023-04-08T05:24:24.062Z,51.111244
2023-04-08T05:25:24.080Z,51.111252
2023-04-08T05:26:24.053Z,51.111271
2023-04-08T05:27:24.087Z,51.111252
2023-04-08T05:28:24.088Z,51.111256
2023-04-08T05:29:24.036Z,51.111248
2023-04-08T05:30:24.024Z,51.111252
2023-04-08T05:31:24.053Z,51.111237
2023-04-08T05:32:40.514Z,51.111237
2023-04-08T05:33:24.021Z,51.111240
2023-04-08T05:34:24.046Z,51.111233
2023-04-08T05:35:24.017Z,51.111229
2023-04-08T05:36:24.019Z,51.111248
2023-04-08T05:37:23.972Z,51.111233
2023-04-08T05:38:23.999Z,51.111237
2023-04-08T05:39:23.940Z,51.111233
2023-04-08T05:40:23.961Z,51.111240
2023-04-08T05:41:23.927Z,51.111237
2023-04-08T05:42:23.966Z,51.111252
2023-04-08T05:43:24.004Z,51.111252
2023-04-08T05:44:23.941Z,51.111248
2023-04-08T05:45:23.970Z,51.111252
2023-04-08T05:46:23.955Z,51.111217
2023-04-08T05:47:23.946Z,51.111244
2023-04-08T05:48:23.886Z,51.111252
2023-04-08T05:49:23.921Z,51.111256
2023-04-08T05:50:23.915Z,51.111263
2023-04-08T05:51:23.886Z,51.111259
2023-04-08T05:52:23.895Z,51.111229
2023-04-08T05:53:23.864Z,51.111229
2023-04-08T05:54:23.927Z,51.111240
2023-04-08T05:55:23.903Z,51.111225
2023-04-08T05:56:23.846Z,51.111233
2023-04-08T05:57:23.815Z,51.111206
2023-04-08T05:58:23.824Z,51.111240
2023-04-08T05:59:23.845Z,51.111214
2023-04-08T06:00:23.952Z,51.111225
2023-04-08T06:01:23.854Z,51.111240
2023-04-08T06:02:23.863Z,51.111259
2023-04-08T06:03:23.937Z,51.111221
2023-04-08T06:04:23.938Z,51.111225
2023-04-08T06:05:23.811Z,51.111217
2023-04-08T06:06:23.800Z,51.111206
2023-04-08T06:07:23.800Z,51.111206
2023-04-08T06:08:23.763Z,51.111187
2023-04-08T06:09:23.717Z,51.111210
2023-04-08T06:10:23.710Z,51.111233
2023-04-08T06:11:23.801Z,51.111221
2023-04-08T06:12:23.756Z,51.111195
2023-04-08T06:13:38.262Z,51.111187
2023-04-08T06:14:24.727Z,51.111202
2023-04-08T06:15:23.700Z,51.111229
2023-04-08T06:16:24.279Z,51.111233
2023-04-08T06:17:23.868Z,51.111221
2023-04-08T06:18:23.690Z,51.111206
2023-04-08T06:19:23.692Z,51.111198
2023-04-08T06:20:23.722Z,51.111210
2023-04-08T06:21:23.667Z,51.111240
2023-04-08T06:22:23.715Z,51.111256
2023-04-08T06:23:23.631Z,51.111248
2023-04-08T06:24:23.651Z,51.111252
2023-04-08T06:25:23.817Z,51.111259
2023-04-08T06:26:23.632Z,51.111141
2023-04-08T06:27:23.681Z,51.111095
2023-04-08T06:28:23.630Z,51.111153
2023-04-08T06:29:23.610Z,51.111202
2023-04-08T06:30:23.637Z,51.111183
2023-04-08T06:31:23.993Z,51.111164
2023-04-08T06:32:23.649Z,51.111195
2023-04-08T06:33:23.613Z,51.111214
2023-04-08T06:34:23.561Z,51.111214
2023-04-08T06:35:23.583Z,51.111183
2023-04-08T06:36:23.556Z,51.111214
2023-04-08T06:37:23.557Z,51.111217
2023-04-08T06:38:23.787Z,51.111195
2023-04-08T06:39:23.562Z,51.111187
2023-04-08T06:40:23.566Z,51.111217
2023-04-08T06:41:23.564Z,51.111187
2023-04-08T06:42:23.571Z,51.111233
2023-04-08T06:43:23.567Z,51.111191
2023-04-08T06:44:23.556Z,51.111210
2023-04-08T06:45:23.512Z,51.111210
2023-04-08T06:46:23.525Z,51.111240
2023-04-08T06:47:23.549Z,51.111240
2023-04-08T06:48:23.520Z,51.111206
2023-04-08T06:49:23.910Z,51.111221
2023-04-08T06:50:23.476Z,51.111221
2023-04-08T06:51:23.475Z,51.111252
2023-04-08T06:52:23.449Z,51.111259
2023-04-08T06:53:23.552Z,51.111244
2023-04-08T06:54:23.450Z,51.111275
2023-04-08T06:55:23.475Z,51.111275
2023-04-08T06:56:23.437Z,51.111286
2023-04-08T06:57:23.467Z,51.111263
2023-04-08T06:58:23.420Z,51.111309
2023-04-08T06:59:23.430Z,51.111248
2023-04-08T07:00:23.441Z,51.111252
2023-04-08T07:01:23.416Z,51.111275
2023-04-08T07:02:23.493Z,51.111248
2023-04-08T07:03:23.476Z,51.111248
2023-04-08T07:04:23.477Z,51.111298
2023-04-08T07:05:23.395Z,51.111267
2023-04-08T07:06:23.433Z,51.111259
2023-04-08T07:07:23.337Z,51.111225
2023-04-08T07:08:23.331Z,51.111256
2023-04-08T07:09:23.360Z,51.111240
2023-04-08T07:10:23.998Z,51.111229
2023-04-08T07:11:24.419Z,51.111298
2023-04-08T07:12:23.276Z,51.111279
2023-04-08T07:13:23.356Z,51.111259
2023-04-08T07:14:23.275Z,51.111240
2023-04-08T07:15:23.318Z,51.111252
2023-04-08T07:16:23.414Z,51.111279
2023-04-08T07:17:23.357Z,51.111263
2023-04-08T07:18:23.278Z,51.111237
2023-04-08T07:19:23.277Z,51.111275
2023-04-08T07:20:23.263Z,51.111252
2023-04-08T07:21:23.240Z,51.111259
2023-04-08T07:22:24.887Z,51.111362
2023-04-08T07:23:23.291Z,51.111282
2023-04-08T07:24:23.218Z,51.111256
2023-04-08T07:25:23.240Z,51.111259
2023-04-08T07:26:23.402Z,51.111271
2023-04-08T07:27:23.412Z,51.111198
2023-04-08T07:28:23.232Z,51.111233
2023-04-08T07:29:23.228Z,51.111248
2023-04-08T07:30:23.197Z,51.111252
2023-04-08T07:31:23.294Z,51.111244
2023-04-08T07:32:23.215Z,51.111237
2023-04-08T07:33:23.238Z,51.111275
2023-04-08T07:34:23.199Z,51.111271
2023-04-08T07:35:23.210Z,51.111256
2023-04-08T07:36:23.142Z,51.111263
2023-04-08T07:37:23.116Z,51.111271
2023-04-08T07:38:23.203Z,51.111305
2023-04-08T07:39:23.109Z,51.111275
2023-04-08T07:40:23.133Z,51.111282
2023-04-08T07:41:23.110Z,51.111286
2023-04-08T07:42:23.239Z,51.111267
2023-04-08T07:43:23.139Z,51.111259
2023-04-08T07:44:23.205Z,51.111286
2023-04-08T07:45:23.078Z,51.111282
2023-04-08T07:46:23.275Z,51.111267
2023-04-08T07:47:23.231Z,51.111271
2023-04-08T07:48:23.118Z,51.111267
2023-04-08T07:49:23.180Z,51.111263
2023-04-08T07:50:24.142Z,51.111259
2023-04-08T07:51:24.094Z,51.111275
2023-04-08T07:52:22.971Z,51.111286
2023-04-08T07:53:23.954Z,51.111279
2023-04-08T07:54:24.159Z,51.111275
2023-04-08T07:55:22.993Z,51.111267
2023-04-08T07:56:22.987Z,51.111275
2023-04-08T07:57:22.980Z,51.111279
2023-04-08T07:58:23.153Z,51.111275
2023-04-08T07:59:22.937Z,51.111275
2023-04-08T08:00:22.983Z,51.111271
2023-04-08T08:01:22.987Z,51.111267
2023-04-08T08:02:23.122Z,51.111286
2023-04-08T08:03:23.068Z,51.111286
2023-04-08T08:04:23.042Z,51.111301
2023-04-08T08:05:23.095Z,51.111301
2023-04-08T08:06:22.946Z,51.111290
2023-04-08T08:07:22.938Z,51.111298
2023-04-08T08:08:23.020Z,51.111294
2023-04-08T08:09:22.975Z,51.111294
2023-04-08T08:10:22.960Z,51.111305
2023-04-08T08:11:22.885Z,51.111290
2023-04-08T08:12:22.872Z,51.111286
2023-04-08T08:13:22.914Z,51.111301
2023-04-08T08:14:22.936Z,51.111298
2023-04-08T08:15:22.946Z,51.111286
2023-04-08T08:16:23.026Z,51.111301
2023-04-08T08:17:22.861Z,51.111309
2023-04-08T08:18:23.241Z,51.111324
2023-04-08T08:19:23.092Z,51.111324
2023-04-08T08:20:22.927Z,51.111336
2023-04-08T08:21:22.834Z,51.111320
2023-04-08T08:22:22.963Z,51.111328
2023-04-08T08:23:22.833Z,51.111313
2023-04-08T08:24:22.828Z,51.111328
2023-04-08T08:25:24.790Z,51.111343
2023-04-08T08:26:22.804Z,51.111385
2023-04-08T08:27:23.173Z,51.111332
2023-04-08T08:28:22.957Z,51.111351
2023-04-08T08:29:22.749Z,51.111332
2023-04-08T08:30:22.748Z,51.111347
2023-04-08T08:31:22.848Z,51.111370
2023-04-08T08:32:22.922Z,51.111351
2023-04-08T08:33:22.770Z,51.111340
2023-04-08T08:34:22.677Z,51.111370
2023-04-08T08:35:22.835Z,51.111366
2023-04-08T08:36:22.894Z,51.111298
2023-04-08T08:37:22.721Z,51.111328
2023-04-08T08:38:23.703Z,51.111366
2023-04-08T08:39:22.675Z,51.111374
2023-04-08T08:40:22.737Z,51.111340
2023-04-08T08:41:22.646Z,51.111343
2023-04-08T08:42:22.917Z,51.111340
2023-04-08T08:43:22.692Z,51.111340
2023-04-08T08:44:22.607Z,51.111359
2023-04-08T08:45:22.702Z,51.111393
2023-04-08T08:46:22.612Z,51.111401
2023-04-08T08:47:22.630Z,51.111324
2023-04-08T08:48:22.586Z,51.111313
2023-04-08T08:49:22.633Z,51.111279
2023-04-08T08:50:22.709Z,51.111279
2023-04-08T08:51:22.642Z,51.111309
2023-04-08T08:52:22.718Z,51.111248
2023-04-08T08:53:22.601Z,51.111275
2023-04-08T08:54:22.589Z,51.111286
2023-04-08T08:55:41.389Z,51.111282
2023-04-08T08:56:24.588Z,51.111282
2023-04-08T08:57:22.561Z,51.111290
2023-04-08T08:58:22.564Z,51.111286
2023-04-08T08:59:22.515Z,51.111275
2023-04-08T09:00:22.640Z,51.111275
2023-04-08T09:01:22.559Z,51.111279
2023-04-08T09:02:22.598Z,51.111294
2023-04-08T09:03:22.613Z,51.111275
2023-04-08T09:04:22.790Z,51.111244
2023-04-08T09:05:22.553Z,51.111244
2023-04-08T09:06:22.463Z,51.111237
2023-04-08T09:07:22.452Z,51.111248
2023-04-08T09:08:22.447Z,51.111240
2023-04-08T09:09:22.702Z,51.111259
2023-04-08T09:10:22.507Z,51.111237
2023-04-08T09:11:22.539Z,51.111244
2023-04-08T09:12:22.584Z,51.111237
2023-04-08T09:13:22.459Z,51.111259
2023-04-08T09:14:22.622Z,51.111263
2023-04-08T09:15:22.450Z,51.111294
2023-04-08T09:16:22.568Z,51.111282
2023-04-08T09:17:22.443Z,51.111259
2023-04-08T09:18:22.495Z,51.111221
2023-04-08T09:19:22.561Z,51.111248
2023-04-08T09:20:22.360Z,51.111259
2023-04-08T09:21:22.470Z,51.111305
2023-04-08T09:22:22.456Z,51.111301
2023-04-08T09:23:22.384Z,51.111309
2023-04-08T09:24:22.409Z,51.111294
2023-04-08T09:25:22.396Z,51.111298
2023-04-08T09:26:22.362Z,51.111290
2023-04-08T09:27:22.866Z,51.111282
2023-04-08T09:28:22.383Z,51.111301
2023-04-08T09:29:26.415Z,51.111279
2023-04-08T09:30:24.342Z,51.111275
2023-04-08T09:31:22.363Z,51.111290
2023-04-08T09:32:22.354Z,51.111301
2023-04-08T09:33:22.396Z,51.111298
2023-04-08T09:37:20.882Z,51.111282
2023-04-08T09:38:21.542Z,51.111256
2023-04-08T09:39:20.953Z,51.111244
2023-04-08T09:40:20.929Z,51.111298
2023-04-08T09:41:20.837Z,51.111320
2023-04-08T09:42:20.975Z,51.111320
2023-04-08T09:43:20.902Z,51.111370
2023-04-08T09:44:21.191Z,51.111362
2023-04-08T09:45:21.723Z,51.111267
2023-04-08T09:46:20.760Z,51.111309
2023-04-08T09:47:20.894Z,51.111328
2023-04-08T09:48:20.998Z,51.111305
2023-04-08T09:49:20.648Z,51.111282
2023-04-08T09:50:20.819Z,51.111294
2023-04-08T09:51:21.042Z,51.111282
2023-04-08T09:52:20.781Z,51.111282
2023-04-08T09:53:23.111Z,51.111294
2023-04-08T09:54:20.780Z,51.111290
2023-04-08T09:55:20.754Z,51.111309
2023-04-08T09:56:20.982Z,51.111282
2023-04-08T09:57:20.855Z,51.111313
2023-04-08T09:58:20.748Z,51.111313
2023-04-08T09:59:20.708Z,51.111301
2023-04-08T10:00:20.813Z,51.111298
2023-04-08T10:01:20.819Z,51.111271
2023-04-08T10:02:21.067Z,51.111305
2023-04-08T10:03:20.869Z,51.111256
2023-04-08T10:04:20.947Z,51.111279
2023-04-08T10:05:20.580Z,51.111286
2023-04-08T10:06:20.597Z,51.111305
2023-04-08T10:07:20.813Z,51.111301
2023-04-08T10:08:20.551Z,51.111294
2023-04-08T10:09:20.903Z,51.111290
2023-04-08T10:10:20.770Z,51.111267
2023-04-08T10:11:20.710Z,51.111275
2023-04-08T10:12:20.761Z,51.111275
2023-04-08T10:13:20.651Z,51.111248
2023-04-08T10:14:20.604Z,51.111267
2023-04-08T10:15:20.596Z,51.111267
2023-04-08T10:16:20.637Z,51.111259
2023-04-08T10:17:20.609Z,51.111282
2023-04-08T10:18:20.689Z,51.111267
2023-04-08T10:19:20.572Z,51.111252
2023-04-08T10:20:21.004Z,51.111244
2023-04-08T10:21:20.559Z,51.111271
2023-04-08T10:22:20.674Z,51.111275
2023-04-08T10:23:20.567Z,51.111256
2023-04-08T10:24:20.525Z,51.111233
2023-04-08T10:25:20.498Z,51.111263
2023-04-08T10:26:20.380Z,51.111282
2023-04-08T10:27:20.425Z,51.111244
2023-04-08T10:28:20.664Z,51.111271
2023-04-08T10:29:20.397Z,51.111279
2023-04-08T10:30:20.416Z,51.111282
2023-04-08T10:31:20.408Z,51.111221
2023-04-08T10:32:20.502Z,51.111187
2023-04-08T10:33:20.682Z,51.111244
2023-04-08T10:34:20.723Z,51.111290
2023-04-08T10:35:20.644Z,51.111282
2023-04-08T10:36:20.496Z,51.111244
2023-04-08T10:37:20.414Z,51.111244
2023-04-08T10:38:20.523Z,51.111214
2023-04-08T10:39:20.452Z,51.111153
2023-04-08T10:40:20.516Z,51.111336
2023-04-08T10:41:20.425Z,51.111320
2023-04-08T10:42:20.413Z,51.111374
2023-04-08T10:43:20.385Z,51.111320
2023-04-08T10:44:20.360Z,51.111256
2023-04-08T10:45:20.311Z,51.111187
2023-04-08T10:46:21.291Z,51.111198
2023-04-08T10:47:20.471Z,51.111340
2023-04-08T10:48:20.821Z,51.111351
2023-04-08T10:49:20.218Z,51.111370
2023-04-08T10:50:20.487Z,51.111359
2023-04-08T10:51:20.454Z,51.111294
2023-04-08T10:52:20.598Z,51.111351
2023-04-08T10:53:20.386Z,51.111359
2023-04-08T10:54:20.453Z,51.111317
2023-04-08T10:55:20.363Z,51.111279
2023-04-08T10:56:20.419Z,51.111256
2023-04-08T10:57:20.326Z,51.111294
2023-04-08T10:58:20.885Z,51.111095
2023-04-08T10:59:20.549Z,51.111141
2023-04-08T11:00:20.441Z,51.111183
2023-04-08T11:01:20.346Z,51.111217
2023-04-08T11:02:20.346Z,51.111275
2023-04-08T11:03:20.379Z,51.111336
2023-04-08T11:04:20.384Z,51.111397
2023-04-08T11:05:20.515Z,51.111374
2023-04-08T11:06:20.306Z,51.111290
2023-04-08T11:07:20.291Z,51.111267
2023-04-08T11:08:20.906Z,51.111301
2023-04-08T11:09:21.224Z,51.111378
2023-04-08T11:10:20.591Z,51.111366
2023-04-08T11:11:20.311Z,51.111382
2023-04-08T11:12:20.199Z,51.111359
2023-04-08T11:13:20.224Z,51.111340
2023-04-08T11:14:20.084Z,51.111305
2023-04-08T11:15:20.227Z,51.111366
2023-04-08T11:16:20.163Z,51.111340
2023-04-08T11:17:20.206Z,51.111332
2023-04-08T11:18:20.037Z,51.111309
2023-04-08T11:19:20.214Z,51.111305
2023-04-08T11:20:20.193Z,51.111275
2023-04-08T11:21:20.212Z,51.111290
2023-04-08T11:22:20.128Z,51.111279
2023-04-08T11:23:20.168Z,51.111328
2023-04-08T11:24:20.445Z,51.111320
2023-04-08T11:25:20.143Z,51.111317
2023-04-08T11:26:20.338Z,51.111286
2023-04-08T11:27:20.144Z,51.111286